Time;durP1;ratioP1;P1;durP2;ratioP2;P2;SDS_P1;SDS_P2;PMS_P1;PMS_P2;Temp;Humidity;BMP_temperature;BMP_pressure;BME280_temperature;BME280_humidity;BME280_pressure;Samples;Min_cycle;Max_cycle;Signal;HPM_P1;HPM_P2
2023/09/26 00:00:19;;;;;;;7.90;7.30;;;11.60;99.90;;;;;;5054243;28;20506;-67
2023/09/26 00:02:47;;;;;;;8.10;7.50;;;11.60;99.90;;;;;;5045377;28;20482;-67
2023/09/26 00:05:15;;;;;;;8.70;7.83;;;11.60;99.90;;;;;;5052120;28;20489;-67
2023/09/26 00:07:45;;;;;;;7.80;7.20;;;11.50;99.90;;;;;;5053929;28;20470;-67
2023/09/26 00:10:14;;;;;;;8.10;7.40;;;11.50;99.90;;;;;;5051221;28;21182;-66
2023/09/26 00:12:43;;;;;;;8.83;7.97;;;11.50;99.90;;;;;;5052826;28;20519;-66
2023/09/26 00:15:12;;;;;;;7.70;7.10;;;11.50;99.90;;;;;;5052482;28;21501;-66
2023/09/26 00:17:41;;;;;;;7.83;7.13;;;11.50;99.90;;;;;;5050058;28;20469;-67
2023/09/26 00:20:27;;;;;;;8.27;7.47;;;11.50;99.90;;;;;;5055653;28;20859;-66
2023/09/26 00:22:57;;;;;;;8.20;7.50;;;11.50;99.90;;;;;;5054593;28;20469;-66
2023/09/26 00:25:25;;;;;;;8.30;7.60;;;11.50;99.90;;;;;;5051698;28;20496;-66
2023/09/26 00:27:54;;;;;;;8.20;7.60;;;11.50;99.90;;;;;;5053015;28;20860;-66
2023/09/26 00:30:25;;;;;;;7.27;6.77;;;11.50;99.90;;;;;;5052784;28;20937;-66
2023/09/26 00:32:53;;;;;;;7.93;7.07;;;11.40;99.90;;;;;;5052352;28;20560;-66
2023/09/26 00:35:21;;;;;;;8.53;7.63;;;11.40;99.90;;;;;;5049785;28;20494;-66
2023/09/26 00:37:51;;;;;;;8.87;8.07;;;11.40;99.90;;;;;;5055714;28;20539;-66
2023/09/26 00:40:23;;;;;;;8.00;7.30;;;11.40;99.90;;;;;;5053736;28;20469;-66
2023/09/26 00:42:51;;;;;;;9.07;8.33;;;11.40;99.90;;;;;;5058439;28;20465;-67
2023/09/26 00:45:19;;;;;;;8.83;7.83;;;11.40;99.90;;;;;;5058068;28;20494;-67
2023/09/26 00:47:49;;;;;;;8.93;8.13;;;11.40;99.90;;;;;;5059227;28;20892;-67
2023/09/26 00:50:17;;;;;;;8.20;7.60;;;11.40;99.90;;;;;;5054720;28;20557;-66
2023/09/26 00:52:47;;;;;;;8.53;7.67;;;11.40;99.90;;;;;;5056697;28;20553;-66
2023/09/26 00:55:18;;;;;;;8.63;7.93;;;11.50;99.90;;;;;;5056481;28;20490;-66
2023/09/26 00:57:48;;;;;;;8.50;7.80;;;11.50;99.90;;;;;;5059509;28;20465;-66
2023/09/26 01:00:19;;;;;;;8.93;8.23;;;11.40;99.90;;;;;;5056023;28;20502;-67
2023/09/26 01:02:48;;;;;;;8.13;7.53;;;11.40;99.90;;;;;;5055251;28;20959;-67
2023/09/26 01:05:16;;;;;;;8.30;7.63;;;11.40;99.90;;;;;;5057841;28;20584;-67
2023/09/26 01:07:44;;;;;;;8.50;7.80;;;11.40;99.90;;;;;;5056456;28;20840;-68
2023/09/26 01:10:12;;;;;;;8.97;8.17;;;11.30;99.90;;;;;;5060202;28;20509;-67
2023/09/26 01:12:41;;;;;;;9.03;8.30;;;11.30;99.90;;;;;;5058231;28;20492;-67
2023/09/26 01:15:11;;;;;;;8.57;7.87;;;11.30;99.90;;;;;;5054879;28;20913;-67
2023/09/26 01:17:40;;;;;;;8.90;8.00;;;11.30;99.90;;;;;;5056085;28;20465;-67
2023/09/26 01:20:13;;;;;;;8.53;7.90;;;11.20;99.90;;;;;;5058474;28;20838;-67
2023/09/26 01:22:45;;;;;;;7.73;7.13;;;11.20;99.90;;;;;;5057191;28;20474;-67
2023/09/26 01:25:15;;;;;;;8.30;7.60;;;11.20;99.90;;;;;;5055455;28;20762;-67
2023/09/26 01:27:43;;;;;;;8.60;7.80;;;11.20;99.90;;;;;;5054807;28;20524;-67
2023/09/26 01:30:13;;;;;;;8.17;7.47;;;11.20;99.90;;;;;;5057140;28;20477;-67
2023/09/26 01:32:41;;;;;;;7.87;7.20;;;11.10;99.90;;;;;;5056893;28;20500;-67
2023/09/26 01:35:09;;;;;;;8.40;7.80;;;11.10;99.90;;;;;;5055384;28;20489;-67
2023/09/26 01:37:37;;;;;;;8.67;7.87;;;11.10;99.90;;;;;;5055019;28;20549;-67
2023/09/26 01:40:15;;;;;;;8.47;7.77;;;11.00;99.90;;;;;;5057300;28;20576;-67
2023/09/26 01:42:45;;;;;;;8.00;7.40;;;11.00;99.90;;;;;;5058319;28;20476;-67
2023/09/26 01:45:13;;;;;;;8.50;7.77;;;11.00;99.90;;;;;;5056101;28;20481;-67
2023/09/26 01:47:45;;;;;;;8.17;7.57;;;11.00;99.90;;;;;;5055129;28;20470;-67
2023/09/26 01:50:13;;;;;;;8.33;7.63;;;10.90;99.90;;;;;;5057635;28;20472;-67
2023/09/26 01:52:41;;;;;;;7.97;7.17;;;10.90;99.90;;;;;;5058410;28;20476;-66
2023/09/26 01:55:14;;;;;;;8.17;7.47;;;10.90;99.90;;;;;;5053762;28;20577;-66
2023/09/26 01:57:42;;;;;;;8.13;7.30;;;10.90;99.90;;;;;;5056989;28;20475;-66
2023/09/26 02:00:13;;;;;;;8.33;7.67;;;10.90;99.90;;;;;;5059317;28;20512;-66
2023/09/26 02:02:42;;;;;;;8.60;7.80;;;10.90;99.90;;;;;;5056751;28;20471;-66
2023/09/26 02:05:11;;;;;;;8.20;7.53;;;10.80;99.90;;;;;;5049534;28;20485;-67
2023/09/26 02:07:40;;;;;;;8.33;7.63;;;10.80;99.90;;;;;;5056250;28;20556;-67
2023/09/26 02:10:09;;;;;;;7.60;7.00;;;10.80;99.90;;;;;;5055773;28;20469;-66
2023/09/26 02:12:43;;;;;;;8.50;7.80;;;10.80;99.90;;;;;;5054908;28;20516;-66
2023/09/26 02:15:13;;;;;;;7.90;7.20;;;10.80;99.90;;;;;;5054216;28;20492;-66
2023/09/26 02:17:42;;;;;;;8.37;7.67;;;10.80;99.90;;;;;;5056553;28;20571;-66
2023/09/26 02:20:12;;;;;;;7.50;7.00;;;10.80;99.90;;;;;;5057271;28;20465;-66
2023/09/26 02:22:42;;;;;;;8.03;7.40;;;10.80;99.90;;;;;;5054581;28;20496;-66
2023/09/26 02:25:11;;;;;;;8.07;7.37;;;10.80;99.90;;;;;;5053917;28;20481;-66
2023/09/26 02:27:39;;;;;;;8.10;7.30;;;10.80;99.90;;;;;;5052323;28;20465;-66
2023/09/26 02:30:09;;;;;;;7.83;7.13;;;10.70;99.90;;;;;;5058205;28;20959;-66
2023/09/26 02:32:39;;;;;;;7.90;7.20;;;10.70;99.90;;;;;;5055195;28;20503;-66
2023/09/26 02:35:09;;;;;;;8.00;7.40;;;10.70;99.90;;;;;;5051871;28;20497;-66
2023/09/26 02:37:37;;;;;;;7.57;6.87;;;10.70;99.90;;;;;;5053510;28;20498;-66
2023/09/26 02:40:09;;;;;;;7.97;7.27;;;10.70;99.90;;;;;;5053870;28;20481;-67
2023/09/26 02:42:38;;;;;;;7.77;7.20;;;10.70;99.90;;;;;;5057585;28;20473;-66
2023/09/26 02:45:08;;;;;;;8.07;7.37;;;10.60;99.90;;;;;;5052910;28;20533;-66
2023/09/26 02:47:38;;;;;;;8.20;7.43;;;10.70;99.90;;;;;;5059251;28;20467;-66
2023/09/26 02:50:07;;;;;;;7.90;7.30;;;10.70;99.90;;;;;;5054716;28;20493;-66
2023/09/26 02:52:37;;;;;;;8.30;7.60;;;10.70;99.90;;;;;;5055229;28;20474;-66
2023/09/26 02:55:07;;;;;;;7.73;7.03;;;10.60;99.90;;;;;;5054338;28;20486;-66
2023/09/26 02:57:36;;;;;;;8.03;7.33;;;10.60;99.90;;;;;;5054423;28;20478;-66
2023/09/26 03:00:11;;;;;;;8.10;7.40;;;10.60;99.90;;;;;;5057213;28;20501;-66
2023/09/26 03:02:41;;;;;;;8.47;7.77;;;10.60;99.90;;;;;;5054823;28;20556;-66
2023/09/26 03:05:10;;;;;;;7.87;7.17;;;10.60;99.90;;;;;;5052445;28;20843;-66
2023/09/26 03:07:39;;;;;;;9.37;7.90;;;10.60;99.90;;;;;;5054583;28;21317;-66
2023/09/26 03:10:08;;;;;;;8.87;8.10;;;10.60;99.90;;;;;;5053111;28;21130;-67
2023/09/26 03:12:36;;;;;;;8.33;7.63;;;10.60;99.90;;;;;;5049542;28;20974;-66
2023/09/26 03:15:06;;;;;;;8.53;7.83;;;10.60;99.90;;;;;;5048521;28;21075;-66
2023/09/26 03:17:34;;;;;;;9.17;8.37;;;10.60;99.90;;;;;;5052202;28;20470;-66
2023/09/26 03:20:06;;;;;;;9.17;8.43;;;10.60;99.90;;;;;;5045611;28;20590;-66
2023/09/26 03:22:34;;;;;;;8.43;7.63;;;10.60;99.90;;;;;;5053921;28;21042;-66
2023/09/26 03:25:03;;;;;;;9.10;8.30;;;10.60;99.90;;;;;;5049342;28;20907;-66
2023/09/26 03:27:31;;;;;;;8.73;8.03;;;10.70;99.90;;;;;;5054127;28;20473;-67
2023/09/26 03:29:59;;;;;;;8.80;8.10;;;10.60;99.90;;;;;;5054597;28;20474;-67
2023/09/26 03:32:29;;;;;;;8.47;7.70;;;10.70;99.90;;;;;;5057136;28;20506;-66
2023/09/26 03:34:57;;;;;;;8.40;7.70;;;10.70;99.90;;;;;;5054983;28;20543;-66
2023/09/26 03:37:26;;;;;;;9.70;8.70;;;10.70;99.90;;;;;;5053191;28;20465;-67
2023/09/26 03:39:54;;;;;;;8.90;8.10;;;10.70;99.90;;;;;;5055919;28;20483;-66
2023/09/26 03:42:22;;;;;;;8.37;7.70;;;10.70;99.90;;;;;;5055444;28;20885;-67
2023/09/26 03:44:50;;;;;;;8.73;8.13;;;10.70;99.90;;;;;;5051820;28;20475;-66
2023/09/26 03:47:18;;;;;;;9.87;8.97;;;10.70;99.90;;;;;;5056183;28;20564;-66
2023/09/26 03:49:46;;;;;;;9.90;9.00;;;10.80;99.90;;;;;;5054617;28;20466;-67
2023/09/26 03:52:14;;;;;;;9.80;8.80;;;10.70;99.90;;;;;;5055098;28;20954;-66
2023/09/26 03:54:44;;;;;;;10.00;8.77;;;10.70;99.90;;;;;;5054755;28;20559;-66
2023/09/26 03:57:11;;;;;;;9.37;8.67;;;10.80;99.90;;;;;;5056454;28;20462;-66
2023/09/26 03:59:39;;;;;;;9.83;8.93;;;10.70;99.90;;;;;;5053029;28;20488;-66
2023/09/26 04:02:08;;;;;;;10.77;9.67;;;10.70;99.90;;;;;;5053602;28;20481;-65
2023/09/26 04:04:36;;;;;;;9.37;8.47;;;10.80;99.90;;;;;;5052176;28;21022;-65
2023/09/26 04:07:04;;;;;;;9.70;8.80;;;10.70;99.90;;;;;;5053784;28;20489;-68
2023/09/26 04:09:34;;;;;;;9.10;8.37;;;10.70;99.90;;;;;;5055048;28;20541;-67
2023/09/26 04:12:04;;;;;;;9.07;8.37;;;10.70;99.90;;;;;;5054951;28;20550;-68
2023/09/26 04:14:33;;;;;;;9.73;8.93;;;10.70;99.90;;;;;;5051337;28;20590;-66
2023/09/26 04:17:01;;;;;;;10.20;9.30;;;10.80;99.90;;;;;;5054324;28;20570;-66
2023/09/26 04:19:29;;;;;;;10.40;9.40;;;10.80;99.90;;;;;;5059999;28;20549;-66
2023/09/26 04:21:57;;;;;;;9.80;8.90;;;10.80;99.90;;;;;;5060355;28;20900;-66
2023/09/26 04:24:28;;;;;;;10.27;9.37;;;10.80;99.90;;;;;;5052339;28;20531;-67
2023/09/26 04:26:56;;;;;;;10.50;9.43;;;10.80;99.90;;;;;;5056103;28;20588;-67
2023/09/26 04:29:25;;;;;;;9.80;8.97;;;10.80;99.90;;;;;;5057340;28;20482;-67
2023/09/26 04:31:53;;;;;;;10.60;9.60;;;10.80;99.90;;;;;;5058070;28;20579;-66
2023/09/26 04:34:26;;;;;;;10.33;9.33;;;10.80;99.90;;;;;;5055511;28;21014;-67
2023/09/26 04:36:54;;;;;;;9.73;9.00;;;10.70;99.90;;;;;;5056555;28;20959;-66
2023/09/26 04:39:22;;;;;;;9.47;8.67;;;10.70;99.90;;;;;;5058103;28;20482;-65
2023/09/26 04:41:50;;;;;;;10.00;9.20;;;10.70;99.90;;;;;;5057471;28;20506;-66
2023/09/26 04:44:18;;;;;;;9.93;9.07;;;10.70;99.90;;;;;;5058211;28;20572;-66
2023/09/26 04:46:47;;;;;;;9.57;8.77;;;10.70;99.90;;;;;;5055961;28;20490;-65
2023/09/26 04:49:15;;;;;;;14.47;8.53;;;10.70;99.90;;;;;;5054964;28;20472;-65
2023/09/26 04:51:43;;;;;;;9.90;9.00;;;10.70;99.90;;;;;;5055972;28;20477;-66
2023/09/26 04:54:11;;;;;;;9.57;8.73;;;10.70;99.90;;;;;;5047708;28;20497;-66
2023/09/26 04:56:39;;;;;;;9.97;9.03;;;10.70;99.90;;;;;;5048867;28;20589;-66
2023/09/26 04:59:07;;;;;;;10.00;9.00;;;10.60;99.90;;;;;;5057754;28;20470;-65
2023/09/26 05:01:36;;;;;;;9.70;8.80;;;10.70;99.90;;;;;;5050936;28;20480;-66
2023/09/26 05:04:06;;;;;;;10.60;9.53;;;10.70;99.90;;;;;;5058853;28;20485;-66
2023/09/26 05:06:34;;;;;;;9.70;8.90;;;10.70;99.90;;;;;;5056595;28;20571;-67
2023/09/26 05:09:02;;;;;;;10.57;9.47;;;10.70;99.90;;;;;;5049395;28;20979;-68
2023/09/26 05:11:30;;;;;;;10.07;9.17;;;10.70;99.90;;;;;;5049010;28;20549;-67
2023/09/26 05:13:59;;;;;;;10.03;9.13;;;10.70;99.90;;;;;;5051884;28;20472;-67
2023/09/26 05:16:28;;;;;;;9.70;8.80;;;10.70;99.90;;;;;;5055828;28;20586;-67
2023/09/26 05:18:56;;;;;;;10.50;9.50;;;10.70;99.90;;;;;;5053922;28;21426;-67
2023/09/26 05:21:25;;;;;;;9.63;8.73;;;10.60;99.90;;;;;;5055224;28;20462;-67
2023/09/26 05:23:53;;;;;;;9.37;8.57;;;10.70;99.90;;;;;;5051094;28;20557;-67
2023/09/26 05:26:21;;;;;;;10.37;9.33;;;10.60;99.90;;;;;;5055186;28;20505;-67
2023/09/26 05:28:49;;;;;;;10.13;9.23;;;10.60;99.90;;;;;;5040813;28;20465;-67
2023/09/26 05:31:17;;;;;;;9.93;9.03;;;10.60;99.90;;;;;;5045195;28;20505;-67
2023/09/26 05:33:46;;;;;;;9.63;8.70;;;10.60;99.90;;;;;;5047188;28;20545;-67
2023/09/26 05:36:14;;;;;;;10.17;8.87;;;10.60;99.90;;;;;;5047240;28;20499;-67
2023/09/26 05:38:43;;;;;;;9.73;8.70;;;10.60;99.90;;;;;;5047205;28;20469;-67
2023/09/26 05:41:11;;;;;;;10.50;9.50;;;10.60;99.90;;;;;;5053014;28;20518;-67
2023/09/26 05:43:39;;;;;;;10.30;9.40;;;10.60;99.90;;;;;;5048207;28;20478;-66
2023/09/26 05:46:07;;;;;;;9.63;8.73;;;10.60;99.90;;;;;;5050525;28;20492;-67
2023/09/26 05:48:36;;;;;;;10.00;9.10;;;10.60;99.90;;;;;;5051079;28;20519;-67
2023/09/26 05:51:04;;;;;;;10.47;9.47;;;10.60;99.90;;;;;;5052508;28;21050;-67
2023/09/26 05:53:33;;;;;;;10.13;9.23;;;10.70;99.90;;;;;;5047978;28;20963;-66
2023/09/26 05:56:03;;;;;;;10.10;9.20;;;10.70;99.90;;;;;;5054016;28;20782;-66
2023/09/26 05:58:31;;;;;;;11.00;9.90;;;10.80;99.90;;;;;;5055741;28;20476;-67
2023/09/26 06:01:07;;;;;;;10.63;9.47;;;10.80;99.90;;;;;;5051891;28;20701;-67
2023/09/26 06:03:35;;;;;;;10.70;9.70;;;10.90;99.90;;;;;;5044285;28;20897;-67
2023/09/26 06:06:04;;;;;;;11.03;9.93;;;10.90;99.90;;;;;;5051263;28;20489;-67
2023/09/26 06:08:33;;;;;;;10.33;9.33;;;11.00;99.90;;;;;;5049191;28;20969;-66
2023/09/26 06:11:04;;;;;;;11.23;10.13;;;11.10;99.90;;;;;;5049443;28;20474;-67
2023/09/26 06:13:32;;;;;;;10.87;9.77;;;11.10;99.90;;;;;;5047766;28;20512;-66
2023/09/26 06:16:00;;;;;;;11.27;10.27;;;11.10;99.90;;;;;;5049655;28;20940;-67
2023/09/26 06:18:28;;;;;;;11.07;9.73;;;11.20;99.90;;;;;;5050687;28;20973;-66
2023/09/26 06:20:57;;;;;;;11.27;10.27;;;11.20;99.90;;;;;;5053829;28;20567;-67
2023/09/26 06:23:25;;;;;;;10.70;9.70;;;11.30;99.90;;;;;;5051862;28;20969;-66
2023/09/26 06:26:00;;;;;;;12.20;11.00;;;11.30;99.90;;;;;;5046027;28;20493;-67
2023/09/26 06:28:30;;;;;;;10.40;9.60;;;11.40;99.90;;;;;;5052565;28;20484;-67
2023/09/26 06:31:04;;;;;;;11.60;10.07;;;11.40;99.90;;;;;;5050364;28;20465;-67
2023/09/26 06:33:33;;;;;;;11.30;10.40;;;11.50;99.90;;;;;;5053435;28;20965;-67
2023/09/26 06:36:01;;;;;;;12.33;10.27;;;11.50;99.90;;;;;;5053166;28;20520;-67
2023/09/26 06:38:29;;;;;;;10.87;9.77;;;11.50;99.90;;;;;;5051773;28;20978;-67
2023/09/26 06:41:07;;;;;;;10.93;9.93;;;11.60;99.90;;;;;;5054654;28;20515;-67
2023/09/26 06:43:37;;;;;;;10.07;9.17;;;11.70;99.90;;;;;;5055733;28;20545;-67
2023/09/26 06:46:06;;;;;;;15.13;9.67;;;11.70;99.90;;;;;;5050356;28;20574;-67
2023/09/26 06:48:37;;;;;;;11.27;10.13;;;11.70;99.90;;;;;;5041018;28;21285;-68
2023/09/26 06:51:05;;;;;;;11.33;10.33;;;11.80;99.90;;;;;;5042520;28;20904;-67
2023/09/26 06:53:33;;;;;;;10.80;9.80;;;11.90;99.90;;;;;;5045428;28;20485;-67
2023/09/26 06:56:02;;;;;;;11.30;10.10;;;11.90;99.90;;;;;;5048596;28;20502;-67
2023/09/26 06:58:30;;;;;;;11.77;10.60;;;12.00;99.90;;;;;;5047131;28;22120;-67
2023/09/26 07:01:01;;;;;;;11.60;9.13;;;12.00;99.90;;;;;;5042759;28;20469;-67
2023/09/26 07:03:29;;;;;;;11.77;10.53;;;12.10;99.90;;;;;;5049375;28;20875;-67
2023/09/26 07:05:57;;;;;;;11.13;10.13;;;12.20;99.90;;;;;;5041953;28;20698;-67
2023/09/26 07:08:25;;;;;;;10.87;9.87;;;12.30;99.90;;;;;;5044691;28;20568;-67
2023/09/26 07:10:53;;;;;;;10.97;9.93;;;12.40;99.90;;;;;;5047139;28;20543;-67
2023/09/26 07:13:21;;;;;;;11.10;10.07;;;12.50;99.90;;;;;;5054028;28;20469;-67
2023/09/26 07:16:00;;;;;;;10.07;9.27;;;12.60;99.90;;;;;;5051253;28;20951;-67
2023/09/26 07:18:28;;;;;;;10.90;9.80;;;12.70;99.90;;;;;;5051794;28;20467;-67
2023/09/26 07:20:56;;;;;;;10.63;9.03;;;12.80;99.90;;;;;;5047424;28;20552;-66
2023/09/26 07:23:24;;;;;;;10.13;9.23;;;12.90;99.90;;;;;;5055318;28;20458;-67
2023/09/26 07:25:52;;;;;;;9.63;8.77;;;13.00;99.90;;;;;;5043462;28;20524;-67
2023/09/26 07:28:20;;;;;;;10.67;9.67;;;13.10;99.90;;;;;;5051013;28;20493;-66
2023/09/26 07:30:48;;;;;;;10.67;9.47;;;13.20;99.90;;;;;;5049738;28;20475;-67
2023/09/26 07:33:17;;;;;;;10.00;9.10;;;13.30;99.90;;;;;;5048882;28;20465;-66
2023/09/26 07:35:51;;;;;;;10.37;8.73;;;13.40;99.90;;;;;;5048868;28;20547;-67
2023/09/26 07:38:19;;;;;;;9.30;8.37;;;13.50;99.90;;;;;;5051806;28;20471;-66
2023/09/26 07:40:47;;;;;;;9.83;8.80;;;13.50;99.90;;;;;;5051222;28;20985;-66
2023/09/26 07:43:15;;;;;;;13.87;9.00;;;13.60;99.90;;;;;;5054782;28;20555;-66
2023/09/26 07:45:43;;;;;;;9.33;8.43;;;13.60;99.90;;;;;;5056387;28;20500;-66
2023/09/26 07:48:12;;;;;;;9.50;8.60;;;13.60;99.90;;;;;;5055191;28;20515;-66
2023/09/26 07:50:41;;;;;;;9.73;8.50;;;13.60;99.90;;;;;;5049717;28;20473;-66
2023/09/26 07:53:09;;;;;;;9.30;8.50;;;13.70;99.90;;;;;;5055902;28;20553;-66
2023/09/26 07:55:37;;;;;;;9.80;8.90;;;13.70;99.90;;;;;;5056151;28;20585;-67
2023/09/26 07:58:05;;;;;;;9.70;8.70;;;13.70;99.90;;;;;;5053886;28;20607;-67
2023/09/26 08:00:33;;;;;;;12.17;8.93;;;13.80;99.90;;;;;;5054896;28;20569;-66
2023/09/26 08:03:01;;;;;;;9.80;9.03;;;13.80;99.90;;;;;;5060262;28;20556;-66
2023/09/26 08:05:29;;;;;;;9.50;8.70;;;13.90;99.90;;;;;;5055743;28;20929;-66
2023/09/26 08:08:03;;;;;;;9.30;8.60;;;13.90;99.90;;;;;;5057794;28;20488;-65
2023/09/26 08:10:31;;;;;;;8.80;8.03;;;14.00;99.90;;;;;;5058780;28;20470;-65
2023/09/26 08:13:00;;;;;;;9.33;8.40;;;14.00;99.90;;;;;;5055649;28;20474;-65
2023/09/26 08:15:31;;;;;;;10.37;8.53;;;14.00;99.90;;;;;;5056544;28;20485;-66
2023/09/26 08:17:59;;;;;;;9.50;8.70;;;14.10;99.90;;;;;;5053516;28;20458;-65
2023/09/26 08:20:27;;;;;;;9.83;9.03;;;14.20;99.90;;;;;;5056137;28;20883;-65
2023/09/26 08:22:55;;;;;;;9.53;8.70;;;14.30;99.90;;;;;;5053825;28;20474;-65
2023/09/26 08:25:24;;;;;;;9.43;8.53;;;14.40;99.90;;;;;;5054540;28;20498;-65
2023/09/26 08:27:52;;;;;;;8.80;7.83;;;14.40;99.90;;;;;;5056158;28;21012;-65
2023/09/26 08:30:21;;;;;;;11.53;8.20;;;14.50;99.90;;;;;;5058045;28;20470;-65
2023/09/26 08:32:49;;;;;;;10.83;8.60;;;14.60;99.90;;;;;;5060476;28;20470;-65
2023/09/26 08:35:17;;;;;;;9.90;8.13;;;14.70;99.90;;;;;;5058252;28;20481;-65
2023/09/26 08:37:47;;;;;;;8.73;7.70;;;14.70;99.90;;;;;;5059308;28;20519;-65
2023/09/26 08:40:15;;;;;;;10.40;8.57;;;14.80;99.90;;;;;;5050817;28;20549;-65
2023/09/26 08:42:45;;;;;;;8.23;7.53;;;14.90;99.90;;;;;;5056231;28;20489;-65
2023/09/26 08:45:15;;;;;;;9.07;8.27;;;14.90;99.90;;;;;;5055840;28;20485;-65
2023/09/26 08:47:44;;;;;;;8.60;7.70;;;15.00;99.90;;;;;;5046690;28;20555;-65
2023/09/26 08:50:12;;;;;;;9.20;8.10;;;15.10;99.90;;;;;;5056824;28;20472;-65
2023/09/26 08:52:40;;;;;;;8.00;7.40;;;15.10;99.90;;;;;;5054687;28;20515;-65
2023/09/26 08:55:10;;;;;;;8.13;7.53;;;15.20;99.90;;;;;;5054258;28;21144;-65
2023/09/26 08:57:39;;;;;;;9.13;8.43;;;15.30;99.90;;;;;;5050409;28;21008;-65
2023/09/26 09:00:12;;;;;;;7.83;7.13;;;15.30;99.90;;;;;;5055542;28;20561;-65
2023/09/26 09:02:41;;;;;;;8.70;7.90;;;15.40;99.90;;;;;;5056009;28;21190;-65
2023/09/26 09:05:10;;;;;;;8.40;7.70;;;15.60;99.90;;;;;;5051979;28;20898;-65
2023/09/26 09:07:40;;;;;;;7.17;6.50;;;15.70;99.90;;;;;;5058846;28;20951;-65
2023/09/26 09:10:10;;;;;;;7.43;6.83;;;15.80;99.90;;;;;;5055068;28;20554;-66
2023/09/26 09:12:40;;;;;;;8.17;6.77;;;15.90;99.90;;;;;;5056900;28;20984;-65
2023/09/26 09:15:30;;;;;;;8.30;7.20;;;16.10;99.90;;;;;;5056956;28;20523;-65
2023/09/26 09:17:58;;;;;;;7.23;6.37;;;16.20;99.90;;;;;;5053869;28;20501;-65
2023/09/26 09:20:32;;;;;;;6.63;6.13;;;16.40;99.90;;;;;;5054311;28;20470;-65
2023/09/26 09:23:02;;;;;;;7.23;6.53;;;16.40;99.90;;;;;;5051579;28;20864;-65
2023/09/26 09:25:31;;;;;;;7.50;6.83;;;16.40;99.90;;;;;;5054703;28;20489;-65
2023/09/26 09:28:00;;;;;;;6.07;5.57;;;16.50;99.90;;;;;;5054810;28;20473;-65
2023/09/26 09:30:29;;;;;;;8.63;5.97;;;16.50;99.90;;;;;;5056369;28;20567;-65
2023/09/26 09:32:58;;;;;;;7.70;6.60;;;16.60;99.90;;;;;;5053335;28;20502;-65
2023/09/26 09:35:27;;;;;;;8.23;6.10;;;16.70;99.90;;;;;;5053366;28;20509;-65
2023/09/26 09:37:57;;;;;;;6.77;6.27;;;16.70;99.90;;;;;;5057234;28;20978;-65
2023/09/26 09:40:26;;;;;;;5.80;5.30;;;16.80;99.90;;;;;;5055735;28;20552;-65
2023/09/26 09:42:55;;;;;;;7.13;6.43;;;16.90;99.90;;;;;;5054193;28;20502;-65
2023/09/26 09:45:24;;;;;;;6.57;5.93;;;17.00;99.90;;;;;;5055494;28;20496;-65
2023/09/26 09:47:56;;;;;;;6.53;5.83;;;17.10;99.90;;;;;;5053271;28;20559;-65
2023/09/26 09:50:27;;;;;;;6.50;6.00;;;17.20;99.90;;;;;;5043153;28;20489;-65
2023/09/26 09:53:01;;;;;;;5.53;5.10;;;17.20;99.90;;;;;;5054493;28;20556;-65
2023/09/26 09:55:36;;;;;;;6.50;6.00;;;17.30;99.90;;;;;;5049064;28;21065;-68
2023/09/26 09:58:09;;;;;;;5.70;5.30;;;17.50;99.90;;;;;;5052810;28;20485;-67
2023/09/26 10:00:39;;;;;;;11.97;10.07;;;17.60;99.90;;;;;;5054207;28;21055;-68
2023/09/26 10:03:07;;;;;;;13.27;10.23;;;17.70;99.90;;;;;;5056851;28;20474;-68
2023/09/26 10:05:38;;;;;;;6.87;6.17;;;17.90;99.90;;;;;;5052737;28;20586;-68
2023/09/26 10:08:09;;;;;;;7.60;6.90;;;18.00;99.90;;;;;;5057139;28;20465;-68
2023/09/26 10:10:37;;;;;;;10.03;9.03;;;18.20;99.90;;;;;;5054420;28;20520;-67
2023/09/26 10:13:07;;;;;;;8.80;6.37;;;18.30;99.90;;;;;;5053137;28;20477;-68
2023/09/26 10:16:11;;;;;;;7.90;7.20;;;18.50;99.90;;;;;;5049997;28;20641;-69
2023/09/26 10:18:45;;;;;;;7.73;7.03;;;18.50;99.90;;;;;;5056940;28;21262;-65
2023/09/26 10:21:28;;;;;;;6.40;5.90;;;18.60;99.90;;;;;;5056399;28;21219;-66
2023/09/26 10:24:26;;;;;;;7.10;6.60;;;18.60;99.90;;;;;;5056498;28;20477;-65
2023/09/26 10:26:54;;;;;;;6.67;6.03;;;18.70;99.90;;;;;;5054573;28;20558;-66
2023/09/26 10:29:28;;;;;;;5.70;5.30;;;18.70;99.90;;;;;;5050675;28;20497;-65
2023/09/26 10:31:59;;;;;;;6.60;5.33;;;18.70;99.90;;;;;;5050216;28;20465;-64
2023/09/26 10:34:33;;;;;;;5.77;5.17;;;18.80;99.90;;;;;;5049298;28;20497;-65
2023/09/26 10:37:22;;;;;;;6.07;5.47;;;18.90;99.90;;;;;;5045429;28;20573;-65
2023/09/26 10:39:50;;;;;;;5.83;5.33;;;19.00;99.90;;;;;;5045326;28;20498;-65
2023/09/26 10:42:20;;;;;;;6.27;5.67;;;19.20;99.90;;;;;;5054859;28;20628;-65
2023/09/26 10:44:51;;;;;;;6.10;5.53;;;19.30;99.90;;;;;;5053026;28;20572;-70
2023/09/26 10:47:23;;;;;;;5.70;5.20;;;19.40;99.90;;;;;;5051896;28;20928;-70
2023/09/26 10:49:51;;;;;;;6.07;5.57;;;19.50;99.90;;;;;;5048962;28;20501;-71
2023/09/26 10:52:19;;;;;;;5.80;5.30;;;19.60;99.90;;;;;;5055392;28;20480;-69
2023/09/26 10:54:49;;;;;;;5.57;5.17;;;19.80;99.90;;;;;;5056571;28;20522;-69
2023/09/26 10:57:18;;;;;;;6.37;5.70;;;19.90;99.90;;;;;;5057171;28;20473;-68
2023/09/26 10:59:49;;;;;;;6.30;5.73;;;20.00;99.90;;;;;;5055093;28;20458;-68
2023/09/26 11:02:17;;;;;;;5.70;4.83;;;20.00;99.90;;;;;;5054764;28;20474;-70
2023/09/26 11:04:45;;;;;;;6.30;5.70;;;20.00;99.90;;;;;;5048625;28;20493;-68
2023/09/26 11:07:16;;;;;;;6.37;5.77;;;20.10;99.90;;;;;;5054408;28;20540;-68
2023/09/26 11:10:06;;;;;;;6.20;5.70;;;20.20;99.90;;;;;;5054004;28;20482;-68
2023/09/26 11:12:36;;;;;;;6.90;5.83;;;20.20;99.90;;;;;;5056120;28;20474;-68
2023/09/26 11:15:05;;;;;;;6.17;5.67;;;20.30;99.90;;;;;;5048124;28;20558;-68
2023/09/26 11:17:33;;;;;;;6.67;6.03;;;20.30;99.90;;;;;;5049311;28;20466;-68
2023/09/26 11:20:05;;;;;;;6.17;5.67;;;20.30;99.90;;;;;;5046496;28;20910;-68
2023/09/26 11:22:47;;;;;;;6.80;6.23;;;20.30;99.90;;;;;;5044845;28;20573;-68
2023/09/26 11:25:16;;;;;;;6.07;5.50;;;20.30;99.90;;;;;;5051799;28;20539;-68
2023/09/26 11:27:46;;;;;;;6.07;5.50;;;20.30;99.90;;;;;;5053973;28;20502;-69
2023/09/26 11:30:17;;;;;;;5.20;4.90;;;20.40;99.90;;;;;;5055284;28;20519;-69
2023/09/26 11:32:48;;;;;;;5.80;4.90;;;20.50;99.90;;;;;;5052107;28;20526;-69
2023/09/26 11:35:18;;;;;;;4.43;4.13;;;20.60;99.90;;;;;;5053192;28;20876;-69
2023/09/26 11:37:49;;;;;;;4.90;4.57;;;20.80;99.90;;;;;;5056216;28;20492;-69
2023/09/26 11:40:23;;;;;;;4.87;4.57;;;21.10;99.90;;;;;;5053791;28;20982;-67
2023/09/26 11:42:55;;;;;;;5.10;4.70;;;21.30;99.90;;;;;;5046961;28;20539;-68
2023/09/26 11:45:24;;;;;;;5.77;4.80;;;21.50;99.90;;;;;;5049080;28;21026;-67
2023/09/26 11:47:54;;;;;;;4.20;3.90;;;21.70;99.90;;;;;;5053170;28;20498;-68
2023/09/26 11:50:23;;;;;;;5.17;4.70;;;21.80;99.90;;;;;;5046522;28;20904;-68
2023/09/26 11:52:51;;;;;;;4.80;4.37;;;22.00;99.90;;;;;;5050014;28;20474;-68
2023/09/26 11:55:20;;;;;;;4.47;4.07;;;22.20;99.90;;;;;;5044425;28;20497;-68
2023/09/26 11:57:51;;;;;;;6.40;5.67;;;22.50;99.90;;;;;;5046947;28;20837;-69
2023/09/26 12:00:20;;;;;;;5.47;5.07;;;22.70;99.90;;;;;;5046637;28;20735;-68
2023/09/26 12:02:50;;;;;;;5.03;4.63;;;22.90;99.90;;;;;;5049594;28;20550;-68
2023/09/26 12:05:21;;;;;;;5.23;4.83;;;23.00;99.90;;;;;;5047292;28;20486;-68
2023/09/26 12:07:50;;;;;;;4.93;4.57;;;23.20;99.90;;;;;;5053431;28;20973;-68
2023/09/26 12:10:19;;;;;;;5.37;4.80;;;23.40;99.90;;;;;;5054815;28;20588;-68
2023/09/26 12:12:47;;;;;;;4.60;4.30;;;23.60;99.90;;;;;;5054528;28;20477;-67
2023/09/26 12:15:18;;;;;;;4.60;4.20;;;23.80;99.90;;;;;;5049220;28;20572;-67
2023/09/26 12:17:46;;;;;;;4.40;3.90;;;24.00;99.90;;;;;;5053991;28;20883;-67
2023/09/26 12:20:18;;;;;;;4.43;4.10;;;24.30;99.90;;;;;;5056641;28;20483;-66
2023/09/26 12:22:47;;;;;;;4.30;4.00;;;24.40;99.90;;;;;;5053010;28;20563;-68
2023/09/26 12:25:15;;;;;;;6.13;4.23;;;24.60;99.90;;;;;;5048631;28;20954;-67
2023/09/26 12:27:44;;;;;;;3.73;3.53;;;24.90;99.90;;;;;;5051298;28;20693;-68
2023/09/26 12:30:13;;;;;;;4.03;3.73;;;25.40;99.90;;;;;;5048526;28;20493;-67
2023/09/26 12:32:43;;;;;;;5.63;3.90;;;25.90;99.90;;;;;;5051583;28;20554;-67
2023/09/26 12:35:11;;;;;;;4.10;3.80;;;26.60;95.10;;;;;;5052262;28;20486;-68
2023/09/26 12:37:40;;;;;;;4.90;4.13;;;27.70;93.40;;;;;;5046040;28;20568;-68
2023/09/26 12:40:12;;;;;;;3.70;3.50;;;28.60;81.50;;;;;;5053123;28;20468;-66
2023/09/26 12:42:42;;;;;;;4.13;3.83;;;29.10;73.30;;;;;;5053389;28;20556;-65
2023/09/26 12:45:11;;;;;;;3.77;3.47;;;29.40;65.00;;;;;;5043638;28;21004;-63
2023/09/26 12:47:39;;;;;;;4.30;3.90;;;29.60;65.70;;;;;;5057204;28;20505;-63
2023/09/26 12:50:10;;;;;;;5.50;3.60;;;29.70;64.70;;;;;;5049026;28;20501;-64
2023/09/26 12:52:40;;;;;;;3.67;3.40;;;29.40;64.60;;;;;;5049632;28;20469;-63
2023/09/26 12:55:09;;;;;;;4.10;3.80;;;29.40;65.10;;;;;;5056378;28;20635;-64